Terminal Aerodrome Forecast
Issued by NWS

Home | Current Version | Previous Version | Text Only | Print | Product List | Glossary On
Versions: 1 2 3 4 5 6 7 8 9 10 11 12 13 14 15 16 17 18 19
000
FTUS42 KFFC 031731
TAFRYY
TAF
KRYY 031731Z 0318/0418 09005KT 4SM BR OVC005
     FM032100 10004KT P6SM OVC009
     FM040500 13003KT 3SM BR OVC005
     FM040800 20005KT 2SM BR BKN003 OVC007
     FM041400 22006KT 3SM BR BKN007
     FM041700 22008KT P6SM BKN020=

USA.gov is the U.S. government's official web portal to all federal, state and local government web resources and services.